createdAt,value
2017-03-12T00:00:13.477Z,16.72
2017-03-12T00:01:23.426Z,16.44
2017-03-12T00:02:34.150Z,16.52
2017-03-12T00:03:44.515Z,16.72
2017-03-12T00:04:54.806Z,16.92
2017-03-12T00:06:04.719Z,16.82
2017-03-12T00:07:15.043Z,16.52
2017-03-12T00:08:25.772Z,16.44
2017-03-12T00:09:36.084Z,16.62
2017-03-12T00:10:45.595Z,16.72
2017-03-12T00:11:55.908Z,17
2017-03-12T00:13:06.632Z,16.72
2017-03-12T00:14:17.346Z,16.82
2017-03-12T00:15:27.678Z,16.63
2017-03-12T00:16:38.048Z,16.72
2017-03-12T00:17:48.786Z,16.72
2017-03-12T00:18:59.520Z,16.72
2017-03-12T00:20:10.236Z,16.72
2017-03-12T00:21:20.161Z,17
2017-03-12T00:22:30.875Z,16.81
2017-03-12T00:23:41.606Z,16.72
2017-03-12T00:24:51.556Z,16.81
2017-03-12T00:26:01.771Z,16.33
2017-03-12T00:27:12.494Z,16.81
2017-03-12T00:28:23.201Z,16.91
2017-03-12T00:29:33.139Z,17.1
2017-03-12T00:30:43.463Z,16.72
2017-03-12T00:31:53.422Z,16.81
2017-03-12T00:33:03.328Z,17
2017-03-12T00:34:13.676Z,17.1
2017-03-12T00:35:23.630Z,17.19
2017-03-12T00:36:33.577Z,16.91
2017-03-12T00:37:44.301Z,17.29
2017-03-12T00:38:55.046Z,16.72
2017-03-12T00:40:05.753Z,17.19
2017-03-12T00:41:15.367Z,16.91
2017-03-12T00:42:25.996Z,17.19
2017-03-12T00:43:36.735Z,17.29
2017-03-12T00:44:46.689Z,17.39
2017-03-12T00:45:57.385Z,17.1
2017-03-12T00:47:08.059Z,16.71
2017-03-12T00:48:18.016Z,17.29
2017-03-12T00:49:27.588Z,17.19
2017-03-12T00:50:37.550Z,17.19
2017-03-12T00:51:47.493Z,17.19
2017-03-12T00:52:57.449Z,16.72
2017-03-12T00:54:07.788Z,16.99
2017-03-12T00:55:18.110Z,16.9
2017-03-12T00:56:27.847Z,17.29
2017-03-12T00:57:37.379Z,17.19
2017-03-12T00:58:46.957Z,16.61
2017-03-12T00:59:56.963Z,16.61
2017-03-12T01:01:07.341Z,17.09
2017-03-12T01:02:17.672Z,17.09
2017-03-12T01:03:27.237Z,16.99
2017-03-12T01:04:37.976Z,17.29
2017-03-12T01:05:47.939Z,16.99
2017-03-12T01:06:57.893Z,17.19
2017-03-12T01:08:07.829Z,16.9
2017-03-12T01:09:18.158Z,17.29
2017-03-12T01:10:28.497Z,17.29
2017-03-12T01:11:39.209Z,17.09
2017-03-12T01:12:49.558Z,17.29
2017-03-12T01:13:59.499Z,17.29
2017-03-12T01:15:09.853Z,17.29
2017-03-12T01:16:19.818Z,16.9
2017-03-12T01:17:29.784Z,17.29
2017-03-12T01:18:39.766Z,17.38
2017-03-12T01:19:50.106Z,17.29
2017-03-12T01:21:00.427Z,17.38
2017-03-12T01:22:10.337Z,17.47
2017-03-12T01:23:21.081Z,17.47
2017-03-12T01:24:30.660Z,17.19
2017-03-12T01:25:41.038Z,17.47
2017-03-12T01:26:51.366Z,17.09
2017-03-12T01:28:01.516Z,17.09
2017-03-12T01:29:10.304Z,17.09
2017-03-12T01:30:20.256Z,17.09
2017-03-12T01:31:30.205Z,17.38
2017-03-12T01:32:40.555Z,17.47
2017-03-12T01:33:50.894Z,17.09
2017-03-12T01:35:01.483Z,17.38
2017-03-12T01:36:11.424Z,17.47
2017-03-12T01:37:21.773Z,17.47
2017-03-12T01:38:32.081Z,17.19
2017-03-12T01:39:42.014Z,17.47
2017-03-12T01:40:52.739Z,17.09
2017-03-12T01:42:03.468Z,17.19
2017-03-12T01:43:13.399Z,16.99
2017-03-12T01:44:23.678Z,16.9
2017-03-12T01:45:34.024Z,16.99
2017-03-12T01:46:44.795Z,17.38
2017-03-12T01:47:55.558Z,17.47
2017-03-12T01:49:06.283Z,17.47
2017-03-12T01:50:16.623Z,17.18
2017-03-12T01:51:26.549Z,17.37
2017-03-12T01:52:36.833Z,17.27
2017-03-12T01:53:47.517Z,17.27
2017-03-12T01:54:57.855Z,17.37
2017-03-12T01:56:07.837Z,17.37
2017-03-12T01:57:17.003Z,17.37
2017-03-12T01:58:27.737Z,17.56
2017-03-12T01:59:38.062Z,17.37
2017-03-12T02:00:48.017Z,17.37
2017-03-12T02:01:58.769Z,17.47
2017-03-12T02:03:09.510Z,17.29
2017-03-12T02:04:19.834Z,17.37
2017-03-12T02:05:30.124Z,17.37
2017-03-12T02:06:40.455Z,17.47
2017-03-12T02:07:51.162Z,17.56
2017-03-12T02:09:01.079Z,17.47
2017-03-12T02:10:11.794Z,17.08
2017-03-12T02:11:21.753Z,17.18
2017-03-12T02:12:31.719Z,17.08
2017-03-12T02:13:40.898Z,17.37
2017-03-12T02:14:51.226Z,17.18
2017-03-12T02:16:01.963Z,17.66
2017-03-12T02:17:11.534Z,17.18
2017-03-12T02:18:21.845Z,17.18
2017-03-12T02:19:31.774Z,17.18
2017-03-12T02:20:42.184Z,17.27
2017-03-12T02:21:52.532Z,17.27
2017-03-12T02:23:03.258Z,17.47
2017-03-12T02:24:13.611Z,17.47
2017-03-12T02:25:23.943Z,17.37
2017-03-12T02:26:34.274Z,17.47
2017-03-12T02:27:44.996Z,17.37
2017-03-12T02:28:55.732Z,17.66
2017-03-12T02:30:06.456Z,17.47
2017-03-12T02:31:16.798Z,17.47
2017-03-12T02:32:27.179Z,17.08
2017-03-12T02:33:37.089Z,17.37
2017-03-12T02:34:46.619Z,17.47
2017-03-12T02:35:57.348Z,17.27
2017-03-12T02:37:08.064Z,17.47
2017-03-12T02:38:18.034Z,17.37
2017-03-12T02:39:28.311Z,17.47
2017-03-12T02:40:38.977Z,17.47
2017-03-12T02:41:48.931Z,17.37
2017-03-12T02:42:58.499Z,17.27
2017-03-12T02:44:07.662Z,17.37
2017-03-12T02:45:17.989Z,17.18
2017-03-12T02:46:28.366Z,17.47
2017-03-12T02:47:39.093Z,17.47
2017-03-12T02:48:49.815Z,17.37
2017-03-12T02:50:00.160Z,17.47
2017-03-12T02:51:10.487Z,17.56
2017-03-12T02:52:21.476Z,17.18
2017-03-12T02:53:31.426Z,17.66
2017-03-12T02:54:41.753Z,17.56
2017-03-12T02:55:51.316Z,17.27
2017-03-12T02:57:02.340Z,17.27
2017-03-12T02:58:12.624Z,17.37
2017-03-12T02:59:22.923Z,17.47
2017-03-12T03:00:33.255Z,17.47
2017-03-12T03:01:43.567Z,17.56
2017-03-12T03:02:53.773Z,17.56
2017-03-12T03:04:02.935Z,17.27
2017-03-12T03:05:12.496Z,17.76
2017-03-12T03:06:22.074Z,17.47
2017-03-12T03:07:31.239Z,17.66
2017-03-12T03:08:41.598Z,17.76
2017-03-12T03:09:52.335Z,17.56
2017-03-12T03:11:02.699Z,17.47
2017-03-12T03:12:13.035Z,17.66
2017-03-12T03:13:22.973Z,17.47
2017-03-12T03:14:33.641Z,17.56
2017-03-12T03:15:44.376Z,17.56
2017-03-12T03:16:54.696Z,17.37
2017-03-12T03:18:05.385Z,17.56
2017-03-12T03:19:15.730Z,17.56
2017-03-12T03:20:26.445Z,17.56
2017-03-12T03:21:43.055Z,17.56
2017-03-12T03:22:53.412Z,17.47
2017-03-12T03:24:03.953Z,17.47
2017-03-12T03:25:13.881Z,17.47
2017-03-12T03:26:24.190Z,17.66
2017-03-12T03:27:34.915Z,17.66
2017-03-12T03:28:45.703Z,17.56
2017-03-12T03:29:56.035Z,17.66
2017-03-12T03:31:06.372Z,18.04
2017-03-12T03:32:16.323Z,17.85
2017-03-12T03:33:26.683Z,17.56
2017-03-12T03:34:37.396Z,18.04
2017-03-12T03:35:46.923Z,17.66
2017-03-12T03:36:57.664Z,17.94
2017-03-12T03:38:07.665Z,17.94
2017-03-12T03:39:17.627Z,17.85
2017-03-12T03:40:28.330Z,17.56
2017-03-12T03:41:38.999Z,17.47
2017-03-12T03:42:49.722Z,17.85
2017-03-12T03:44:00.058Z,17.85
2017-03-12T03:45:10.413Z,17.84
2017-03-12T03:46:20.767Z,17.47
2017-03-12T03:47:30.719Z,17.55
2017-03-12T03:48:41.038Z,17.76
2017-03-12T03:49:51.364Z,17.66
2017-03-12T03:51:02.055Z,17.84
2017-03-12T03:52:12.398Z,17.74
2017-03-12T03:53:22.744Z,17.65
2017-03-12T03:54:32.691Z,17.84
2017-03-12T03:55:43.416Z,18.04
2017-03-12T03:56:54.138Z,17.74
2017-03-12T03:58:04.507Z,17.84
2017-03-12T03:59:14.832Z,17.74
2017-03-12T04:00:24.976Z,17.36
2017-03-12T04:01:33.809Z,17.94
2017-03-12T04:02:43.740Z,17.65
2017-03-12T04:03:53.677Z,17.84
2017-03-12T04:05:03.647Z,18.04
2017-03-12T04:06:13.989Z,17.46
2017-03-12T04:07:23.930Z,17.65
2017-03-12T04:08:34.041Z,17.84
2017-03-12T04:09:44.376Z,17.84
2017-03-12T04:10:54.722Z,17.65
2017-03-12T04:12:05.058Z,17.65
2017-03-12T04:13:15.363Z,17.65
2017-03-12T04:14:25.725Z,17.94
2017-03-12T04:15:36.055Z,17.84
2017-03-12T04:16:46.353Z,17.55
2017-03-12T04:17:57.094Z,17.65
2017-03-12T04:19:06.262Z,17.74
2017-03-12T04:20:16.799Z,17.84
2017-03-12T04:21:27.133Z,17.65
2017-03-12T04:22:37.497Z,17.55
2017-03-12T04:23:48.223Z,17.84
2017-03-12T04:24:58.571Z,17.84
2017-03-12T04:26:08.533Z,18.04
2017-03-12T04:27:18.877Z,17.55
2017-03-12T04:28:29.222Z,17.65
2017-03-12T04:29:39.568Z,17.65
2017-03-12T04:30:49.923Z,17.65
2017-03-12T04:32:00.648Z,17.74
2017-03-12T04:33:10.999Z,17.55
2017-03-12T04:34:21.709Z,17.46
2017-03-12T04:35:31.637Z,18.04
2017-03-12T04:36:42.323Z,17.94
2017-03-12T04:37:52.260Z,18.04
2017-03-12T04:39:02.570Z,17.94
2017-03-12T04:40:13.303Z,17.94
2017-03-12T04:41:23.658Z,18.04
2017-03-12T04:42:34.354Z,17.84
2017-03-12T04:43:45.024Z,17.84
2017-03-12T04:44:54.955Z,17.74
2017-03-12T04:46:05.214Z,17.94
2017-03-12T04:47:15.121Z,17.94
2017-03-12T04:48:25.843Z,17.94
2017-03-12T04:49:36.132Z,17.84
2017-03-12T04:50:46.870Z,17.84
2017-03-12T04:51:57.567Z,17.65
2017-03-12T04:53:08.238Z,17.65
2017-03-12T04:54:18.593Z,17.84
2017-03-12T04:55:28.921Z,17.84
2017-03-12T04:56:39.674Z,17.94
2017-03-12T04:57:50.400Z,17.84
2017-03-12T04:59:01.159Z,17.94
2017-03-12T05:00:11.499Z,17.94
2017-03-12T05:01:21.850Z,17.94
2017-03-12T05:02:32.196Z,17.83
2017-03-12T05:03:41.791Z,18.04
2017-03-12T05:04:51.743Z,18.02
2017-03-12T05:06:02.105Z,17.74
2017-03-12T05:07:12.082Z,17.64
2017-03-12T05:08:22.635Z,17.83
2017-03-12T05:09:32.987Z,17.93
2017-03-12T05:10:43.709Z,17.94
2017-03-12T05:11:54.024Z,17.94
2017-03-12T05:13:04.693Z,17.94
2017-03-12T05:14:15.050Z,17.94
2017-03-12T05:15:25.368Z,17.74
2017-03-12T05:16:36.049Z,17.84
2017-03-12T05:17:46.401Z,17.84
2017-03-12T05:18:56.727Z,17.84
2017-03-12T05:20:06.695Z,17.83
2017-03-12T05:21:17.044Z,17.84
2017-03-12T05:22:27.001Z,18.04
2017-03-12T05:23:37.742Z,17.74
2017-03-12T05:24:48.471Z,17.94
2017-03-12T05:25:59.203Z,17.84
2017-03-12T05:27:09.547Z,17.94
2017-03-12T05:28:19.911Z,17.74
2017-03-12T05:29:29.869Z,17.83
2017-03-12T05:30:39.796Z,18.04
2017-03-12T05:31:50.501Z,17.94
2017-03-12T05:33:01.475Z,18.04
2017-03-12T05:34:11.424Z,17.55
2017-03-12T05:35:22.109Z,17.74
2017-03-12T05:36:32.472Z,17.94
2017-03-12T05:37:43.182Z,17.94
2017-03-12T05:38:53.133Z,17.94
2017-03-12T05:40:03.780Z,18.04
2017-03-12T05:41:13.491Z,18.04
2017-03-12T05:42:23.486Z,17.74
2017-03-12T05:43:34.199Z,17.83
2017-03-12T05:44:44.181Z,17.74
2017-03-12T05:45:54.529Z,18.04
2017-03-12T05:47:04.877Z,17.45
2017-03-12T05:48:15.636Z,17.55
2017-03-12T05:49:25.918Z,17.55
2017-03-12T05:50:36.664Z,17.64
2017-03-12T05:51:47.009Z,17.55
2017-03-12T05:52:57.357Z,17.64
2017-03-12T05:54:08.078Z,17.46
2017-03-12T05:55:17.235Z,17.65
2017-03-12T05:56:26.751Z,17.74
2017-03-12T05:57:37.478Z,17.55
2017-03-12T05:58:47.821Z,17.64
2017-03-12T05:59:58.158Z,17.55
2017-03-12T06:01:09.240Z,17.55
2017-03-12T06:02:19.152Z,17.55
2017-03-12T06:03:28.720Z,17.74
2017-03-12T06:04:39.053Z,17.46
2017-03-12T06:05:49.731Z,17.65
2017-03-12T06:07:00.081Z,17.45
2017-03-12T06:08:10.808Z,17.55
2017-03-12T06:09:20.738Z,17.55
2017-03-12T06:10:31.456Z,17.36
2017-03-12T06:11:42.049Z,17.45
2017-03-12T06:12:51.992Z,17.65
2017-03-12T06:14:01.962Z,17.74
2017-03-12T06:15:11.898Z,17.55
2017-03-12T06:16:21.803Z,17.65
2017-03-12T06:17:31.749Z,17.46
2017-03-12T06:18:42.482Z,17.46
2017-03-12T06:19:52.820Z,17.46
2017-03-12T06:21:02.412Z,17.17
2017-03-12T06:22:11.965Z,17.74
2017-03-12T06:23:22.687Z,17.55
2017-03-12T06:24:33.028Z,17.27
2017-03-12T06:25:43.371Z,17.46
2017-03-12T06:26:54.144Z,17.17
2017-03-12T06:28:04.857Z,17.55
2017-03-12T06:29:14.812Z,17.36
2017-03-12T06:30:24.774Z,17.07
2017-03-12T06:31:35.504Z,17.46
2017-03-12T06:32:46.223Z,17.36
2017-03-12T06:33:56.568Z,17.46
2017-03-12T06:35:06.529Z,17.46
2017-03-12T06:36:16.446Z,17.07
2017-03-12T06:37:27.170Z,17.36
2017-03-12T06:38:37.473Z,17.17
2017-03-12T06:39:47.772Z,17.17
2017-03-12T06:40:57.679Z,17.17
2017-03-12T06:42:07.657Z,17.27
2017-03-12T06:43:17.995Z,17.36
2017-03-12T06:44:27.527Z,16.99
2017-03-12T06:45:37.458Z,17.27
2017-03-12T06:46:47.800Z,16.89
2017-03-12T06:47:58.578Z,17.37
2017-03-12T06:49:08.148Z,17.08
2017-03-12T06:50:18.878Z,17.08
2017-03-12T06:51:28.861Z,16.99
2017-03-12T06:52:39.587Z,17.27
2017-03-12T06:53:49.581Z,16.5
2017-03-12T06:54:59.106Z,16.6
2017-03-12T06:56:09.420Z,16.89
2017-03-12T06:57:19.767Z,16.5
2017-03-12T06:58:30.528Z,16.7
2017-03-12T06:59:40.874Z,16.7
2017-03-12T07:00:50.813Z,16.6
2017-03-12T07:02:00.719Z,16.7
2017-03-12T07:03:11.020Z,16.7
2017-03-12T07:04:20.993Z,16.6
2017-03-12T07:05:31.352Z,16.8
2017-03-12T07:06:40.925Z,16.9
2017-03-12T07:07:50.872Z,16.42
2017-03-12T07:09:01.961Z,16.61
2017-03-12T07:10:12.657Z,16.23
2017-03-12T07:11:22.571Z,16.32
2017-03-12T07:12:32.925Z,16.32
2017-03-12T07:13:43.278Z,16.13
2017-03-12T07:14:53.626Z,16.42
2017-03-12T07:16:04.594Z,15.95
2017-03-12T07:17:14.930Z,16.24
2017-03-12T07:18:25.670Z,16.24
2017-03-12T07:19:35.208Z,16.14
2017-03-12T07:20:45.932Z,16.04
2017-03-12T07:21:56.277Z,15.95
2017-03-12T07:23:06.612Z,15.75
2017-03-12T07:24:16.580Z,15.75
2017-03-12T07:25:26.535Z,15.66
2017-03-12T07:26:36.522Z,15.66
2017-03-12T07:27:46.873Z,15.57
2017-03-12T07:28:57.202Z,15.19
2017-03-12T07:30:07.129Z,15.28
2017-03-12T07:31:16.681Z,15.19
2017-03-12T07:32:27.047Z,14.9
2017-03-12T07:33:37.773Z,14.8
2017-03-12T07:34:47.312Z,14.8
2017-03-12T07:35:57.985Z,14.81
2017-03-12T07:37:08.533Z,15.19
2017-03-12T07:38:18.906Z,15
2017-03-12T07:39:29.268Z,14.9
2017-03-12T07:40:39.612Z,14.62
2017-03-12T07:41:49.951Z,14.71
2017-03-12T07:43:00.720Z,14.52
2017-03-12T07:44:11.072Z,14.52
2017-03-12T07:45:20.979Z,14.81
2017-03-12T07:46:30.903Z,14.52
2017-03-12T07:47:40.409Z,14.52
2017-03-12T07:48:50.342Z,14.62
2017-03-12T07:50:00.288Z,14.81
2017-03-12T07:51:09.879Z,14.04
2017-03-12T07:52:19.838Z,14.62
2017-03-12T07:53:30.177Z,14.52
2017-03-12T07:54:40.161Z,14.04
2017-03-12T07:55:50.881Z,14.42
2017-03-12T07:57:00.397Z,14.14
2017-03-12T07:58:10.453Z,14.34
2017-03-12T07:59:20.437Z,14.34
2017-03-12T08:00:30.010Z,14.34
2017-03-12T08:01:41.031Z,14.24
2017-03-12T08:02:51.781Z,14.14
2017-03-12T08:04:02.124Z,14.24
2017-03-12T08:05:12.082Z,14.14
2017-03-12T08:06:22.425Z,13.95
2017-03-12T08:07:32.388Z,13.95
2017-03-12T08:08:42.345Z,14.04
2017-03-12T08:09:52.703Z,13.95
2017-03-12T08:11:02.866Z,13.76
2017-03-12T08:12:12.443Z,13.85
2017-03-12T08:13:22.785Z,13.66
2017-03-12T08:14:33.127Z,13.56
2017-03-12T08:15:43.475Z,13.56
2017-03-12T08:16:53.829Z,13.18
2017-03-12T08:18:04.555Z,13.56
2017-03-12T08:19:15.555Z,13.76
2017-03-12T08:20:26.297Z,13.56
2017-03-12T08:21:36.623Z,13.28
2017-03-12T08:22:46.991Z,13.66
2017-03-12T08:23:56.932Z,13.37
2017-03-12T08:25:06.475Z,13.18
2017-03-12T08:26:16.029Z,13.18
2017-03-12T08:27:25.605Z,13.28
2017-03-12T08:28:35.829Z,13.47
2017-03-12T08:29:46.196Z,13.38
2017-03-12T08:30:56.752Z,13.18
2017-03-12T08:32:07.086Z,12.99
2017-03-12T08:33:16.269Z,12.99
2017-03-12T08:34:26.613Z,13.09
2017-03-12T08:38:24.370Z,12.99
2017-03-12T08:39:33.930Z,12.99
2017-03-12T08:40:43.851Z,12.99
2017-03-12T08:41:53.442Z,13.47
2017-03-12T08:43:02.641Z,13.28
2017-03-12T08:44:12.621Z,13.28
2017-03-12T08:45:21.459Z,13.56
2017-03-12T08:46:31.048Z,14.24
2017-03-12T08:47:41.816Z,14.34
2017-03-12T08:48:50.621Z,14.43
2017-03-12T08:49:59.778Z,14.05
2017-03-12T08:51:10.135Z,14.15
2017-03-12T08:52:19.295Z,14.05
2017-03-12T08:53:28.883Z,14.63
2017-03-12T08:54:38.087Z,13.96
2017-03-12T08:55:48.066Z,14.05
2017-03-12T08:56:58.027Z,14.25
2017-03-12T08:58:06.835Z,14.25
2017-03-12T08:59:16.405Z,13.57
2017-03-12T09:00:25.627Z,13.67
2017-03-12T09:01:34.802Z,14.15
2017-03-12T09:02:44.746Z,13.96
2017-03-12T09:03:54.718Z,14.15
2017-03-12T09:05:04.277Z,14.06
2017-03-12T09:06:13.857Z,13.48
2017-03-12T09:07:23.832Z,13.58
2017-03-12T09:08:33.020Z,13.39
2017-03-12T09:09:42.236Z,13.01
2017-03-12T09:10:51.765Z,12.72
2017-03-12T09:12:00.943Z,12.24
2017-03-12T09:13:10.139Z,12.15
2017-03-12T09:14:19.711Z,11.96
2017-03-12T09:15:29.697Z,11.86
2017-03-12T09:16:38.481Z,11.19
2017-03-12T09:17:47.612Z,10.61
2017-03-12T09:18:57.960Z,10.63
2017-03-12T09:20:07.100Z,9.75
2017-03-12T09:21:16.273Z,9.56
2017-03-12T09:22:25.812Z,9.28
2017-03-12T09:23:35.397Z,9.09
2017-03-12T09:24:45.387Z,9.19
2017-03-12T09:25:55.734Z,8.61
2017-03-12T09:27:04.976Z,8.32
2017-03-12T09:28:15.337Z,8.33
2017-03-12T09:29:24.938Z,8.42
2017-03-12T09:30:34.903Z,7.84
2017-03-12T09:31:44.564Z,7.56
2017-03-12T09:32:54.161Z,7.17
2017-03-12T09:34:04.142Z,7.27
2017-03-12T09:35:13.348Z,7.27
2017-03-12T09:36:22.927Z,7.18
2017-03-12T09:37:32.039Z,6.88
2017-03-12T09:38:41.582Z,6.3
2017-03-12T09:39:50.795Z,6.4
2017-03-12T09:40:59.613Z,6.02
2017-03-12T09:42:09.585Z,6.02
2017-03-12T09:43:18.377Z,6.02
2017-03-12T09:44:27.561Z,6.02
2017-03-12T09:45:37.153Z,6.02
2017-03-12T09:46:46.737Z,5.63
2017-03-12T09:47:56.581Z,5.54
2017-03-12T09:49:06.608Z,5.25
2017-03-12T09:50:15.800Z,5.15
2017-03-12T09:51:25.378Z,4.96
2017-03-12T09:52:34.956Z,4.67
2017-03-12T09:53:45.315Z,4.57
2017-03-12T09:54:55.700Z,4.67
2017-03-12T09:56:05.256Z,4.09
2017-03-12T09:57:15.569Z,4.09
2017-03-12T09:58:25.178Z,3.89
2017-03-12T09:59:35.159Z,3.89
2017-03-12T10:02:17.561Z,3.31
2017-03-12T10:03:27.914Z,3.9
2017-03-12T10:04:37.881Z,3.7
2017-03-12T10:05:48.225Z,3.51
2017-03-12T10:06:58.944Z,3.22
2017-03-12T10:08:08.474Z,2.83
2017-03-12T10:09:18.451Z,2.93
2017-03-12T10:10:28.786Z,2.93
2017-03-12T10:11:37.966Z,2.64
2017-03-12T10:12:48.281Z,2.83
2017-03-12T10:13:58.246Z,2.93
2017-03-12T10:15:07.820Z,2.93
2017-03-12T10:16:17.409Z,2.54
2017-03-12T10:17:26.981Z,2.44
2017-03-12T10:18:36.867Z,2.73
2017-03-12T10:19:46.391Z,2.73
2017-03-12T10:20:56.359Z,2.73
2017-03-12T10:22:06.583Z,2.93
2017-03-12T10:23:16.160Z,2.44
2017-03-12T10:24:25.727Z,2.83
2017-03-12T10:25:35.264Z,2.83
2017-03-12T10:26:45.582Z,3.22
2017-03-12T10:27:55.515Z,2.93
2017-03-12T10:29:05.495Z,2.83
2017-03-12T10:30:15.438Z,2.83
2017-03-12T10:31:25.753Z,2.83
2017-03-12T10:35:33.691Z,2.64
2017-03-12T10:36:42.469Z,2.83
2017-03-12T10:37:51.661Z,2.74
2017-03-12T10:39:02.043Z,2.55
2017-03-12T10:40:12.029Z,1.76
2017-03-12T10:41:21.223Z,1.86
2017-03-12T10:42:30.434Z,1.76
2017-03-12T10:43:40.772Z,1.27
2017-03-12T10:44:50.290Z,1.67
2017-03-12T10:46:00.624Z,1.27
2017-03-12T10:47:10.611Z,0.98
2017-03-12T10:48:20.213Z,0.39
2017-03-12T10:49:30.059Z,0.68
2017-03-12T10:50:39.636Z,0.88
2017-03-12T10:51:49.987Z,0.59
2017-03-12T10:52:59.593Z,0.39
2017-03-12T10:54:09.178Z,0.59
2017-03-12T10:55:19.531Z,0.39
2017-03-12T10:56:28.751Z,0.29
2017-03-12T10:57:39.104Z,0.2
2017-03-12T10:58:49.464Z,0.39
2017-03-12T10:59:59.751Z,0.68
2017-03-12T11:01:09.734Z,0
2017-03-12T11:02:19.682Z,0.29
2017-03-12T11:03:29.223Z,0.29
2017-03-12T11:04:45.480Z,0.39
2017-03-12T11:05:55.853Z,0
2017-03-12T11:07:05.423Z,0
2017-03-12T11:08:15.004Z,0.29
2017-03-12T11:09:25.365Z,0.1
2017-03-12T11:10:35.325Z,0.2
2017-03-12T11:11:44.913Z,0
2017-03-12T11:12:54.554Z,0
2017-03-12T11:14:04.917Z,0.1
2017-03-12T11:15:14.118Z,0
2017-03-12T11:16:23.696Z,0
2017-03-12T11:17:34.047Z,0
2017-03-12T11:18:44.016Z,0
2017-03-12T11:19:53.538Z,0
2017-03-12T11:21:02.730Z,0
2017-03-12T11:22:12.687Z,0
2017-03-12T11:23:22.650Z,0
2017-03-12T11:24:32.236Z,0
2017-03-12T11:25:41.815Z,0
2017-03-12T11:26:52.503Z,0
2017-03-12T11:28:02.489Z,0
2017-03-12T11:29:12.061Z,0
2017-03-12T11:30:22.442Z,0
2017-03-12T11:31:32.036Z,0
2017-03-12T11:32:42.408Z,0
2017-03-12T11:33:52.772Z,0
2017-03-12T11:35:03.106Z,0
2017-03-12T11:36:13.044Z,0
2017-03-12T11:37:23.005Z,0
2017-03-12T11:38:33.701Z,0
2017-03-12T11:39:44.058Z,0
2017-03-12T11:40:53.632Z,0
2017-03-12T11:42:03.993Z,0
2017-03-12T11:43:14.335Z,0
2017-03-12T11:44:24.299Z,0
2017-03-12T11:45:34.280Z,0
2017-03-12T11:46:43.091Z,0
2017-03-12T11:47:53.049Z,0
2017-03-12T11:49:02.630Z,0
2017-03-12T11:50:12.952Z,0
2017-03-12T11:51:22.168Z,0
2017-03-12T11:52:32.147Z,0
2017-03-12T11:53:42.137Z,0
2017-03-12T11:54:51.725Z,0
2017-03-12T11:56:02.481Z,0
2017-03-12T11:57:13.449Z,0
2017-03-12T11:58:23.812Z,0
2017-03-12T11:59:34.533Z,0
2017-03-12T12:00:44.846Z,0
2017-03-12T12:01:54.815Z,0
2017-03-12T12:03:04.787Z,0
2017-03-12T12:04:15.179Z,0
2017-03-12T12:05:25.183Z,0
2017-03-12T12:06:35.571Z,0.1
2017-03-12T12:07:46.278Z,0.29
2017-03-12T12:08:56.903Z,0.78
2017-03-12T12:10:06.848Z,0.78
2017-03-12T12:11:16.371Z,1.67
2017-03-12T12:12:25.152Z,1.86
2017-03-12T12:13:34.363Z,2.25
2017-03-12T12:14:44.342Z,2.54
2017-03-12T12:15:53.544Z,2.64
2017-03-12T12:17:03.924Z,2.93
2017-03-12T12:18:13.500Z,3.03
2017-03-12T12:19:23.872Z,3.31
2017-03-12T12:20:33.453Z,3.9
2017-03-12T12:21:43.826Z,3.8
2017-03-12T12:22:54.178Z,4.38
2017-03-12T12:24:04.543Z,4.68
2017-03-12T12:25:14.130Z,4.28
2017-03-12T12:26:23.359Z,4.96
2017-03-12T12:27:34.107Z,4.86
2017-03-12T12:28:43.693Z,4.96
2017-03-12T12:29:54.434Z,5.15
2017-03-12T12:31:04.394Z,5.35
2017-03-12T12:32:15.140Z,5.63
2017-03-12T12:33:25.498Z,5.83
2017-03-12T12:34:35.481Z,6.12
2017-03-12T12:35:45.443Z,6.02
2017-03-12T12:36:54.999Z,6.7
2017-03-12T12:38:05.114Z,6.89
2017-03-12T12:39:15.405Z,7.18
2017-03-12T12:40:26.110Z,7.37
2017-03-12T12:41:36.088Z,7.86
2017-03-12T12:42:46.269Z,8.06
2017-03-12T12:43:56.599Z,8.15
2017-03-12T12:45:06.915Z,7.86
2017-03-12T12:46:17.211Z,8.25
2017-03-12T12:47:26.827Z,8.83
2017-03-12T12:48:36.801Z,8.83
2017-03-12T12:49:47.152Z,8.83
2017-03-12T12:50:57.919Z,9.11
2017-03-12T12:52:07.880Z,9.5
2017-03-12T12:53:17.095Z,9.59
2017-03-12T12:54:27.111Z,9.5
2017-03-12T12:55:37.022Z,9.4
2017-03-12T12:56:46.178Z,9.59
2017-03-12T12:57:56.567Z,9.89
2017-03-12T12:59:06.146Z,10.17
2017-03-12T13:00:15.997Z,9.69
2017-03-12T13:01:26.355Z,9.58
2017-03-12T13:02:36.721Z,10.07
2017-03-12T13:03:47.466Z,10.17
2017-03-12T13:04:57.848Z,10.55
2017-03-12T13:06:07.812Z,10.55
2017-03-12T13:07:17.786Z,10.65
2017-03-12T13:08:27.412Z,10.26
2017-03-12T13:09:37.390Z,10.84
2017-03-12T13:10:47.741Z,10.94
2017-03-12T13:11:57.705Z,10.83
2017-03-12T13:13:07.308Z,10.93
2017-03-12T13:14:17.688Z,11.22
2017-03-12T13:15:30.271Z,10.93
2017-03-12T13:16:40.637Z,11.32
2017-03-12T13:17:49.802Z,11.22
2017-03-12T13:19:00.165Z,11.12
2017-03-12T13:20:09.753Z,10.93
2017-03-12T13:21:20.479Z,11.51
2017-03-12T13:22:30.367Z,11.51
2017-03-12T13:23:40.301Z,11.51
2017-03-12T13:24:49.884Z,11.12
2017-03-12T13:25:59.470Z,11.7
2017-03-12T13:27:09.790Z,11.7
2017-03-12T13:28:20.104Z,11.6
2017-03-12T13:29:29.285Z,11.89
2017-03-12T13:30:38.892Z,11.5
2017-03-12T13:31:48.466Z,11.6
2017-03-12T13:32:58.050Z,11.6
2017-03-12T13:34:08.005Z,11.88
2017-03-12T13:35:17.958Z,11.5
2017-03-12T13:36:28.245Z,11.88
2017-03-12T13:37:38.936Z,11.98
2017-03-12T13:38:48.858Z,12.08
2017-03-12T13:39:59.585Z,11.69
2017-03-12T13:41:09.319Z,11.88
2017-03-12T13:42:19.683Z,12.18
2017-03-12T13:43:29.263Z,11.6
2017-03-12T13:44:39.226Z,12.27
2017-03-12T13:45:49.159Z,11.88
2017-03-12T13:46:58.304Z,12.08
2017-03-12T13:48:08.560Z,12.07
2017-03-12T13:49:17.706Z,12.27
2017-03-12T13:50:27.296Z,12.27
2017-03-12T13:51:37.670Z,12.07
2017-03-12T13:52:47.640Z,12.17
2017-03-12T13:53:56.844Z,12.07
2017-03-12T13:55:07.225Z,12.27
2017-03-12T13:56:17.574Z,12.17
2017-03-12T13:57:27.942Z,12.46
2017-03-12T13:58:37.134Z,12.46
2017-03-12T13:59:46.710Z,12.07
2017-03-12T14:00:57.070Z,12.27
2017-03-12T14:02:06.236Z,12.17
2017-03-12T14:03:16.157Z,11.69
2017-03-12T14:04:26.136Z,11.59
2017-03-12T14:05:36.098Z,11.79
2017-03-12T14:06:46.281Z,11.78
2017-03-12T14:07:56.964Z,11.59
2017-03-12T14:09:07.332Z,11.87
2017-03-12T14:10:17.692Z,12.36
2017-03-12T14:11:27.671Z,12.07
2017-03-12T14:12:38.459Z,11.87
2017-03-12T14:13:49.224Z,11.87
2017-03-12T14:14:59.203Z,11.58
2017-03-12T14:16:09.232Z,11.78
2017-03-12T14:17:19.152Z,12.16
2017-03-12T14:18:29.891Z,12.26
2017-03-12T14:19:39.865Z,12.26
2017-03-12T14:20:50.219Z,12.07
2017-03-12T14:22:00.975Z,12.26
2017-03-12T14:23:09.796Z,12.16
2017-03-12T14:24:18.612Z,12.36
2017-03-12T14:25:28.977Z,12.16
2017-03-12T14:26:39.734Z,12.16
2017-03-12T14:27:49.693Z,12.26
2017-03-12T14:29:00.299Z,12.26
2017-03-12T14:30:09.898Z,12.16
2017-03-12T14:31:19.090Z,12.26
2017-03-12T14:32:29.456Z,12.74
2017-03-12T14:33:39.808Z,12.45
2017-03-12T14:34:50.102Z,12.36
2017-03-12T14:36:00.039Z,12.45
2017-03-12T14:37:08.958Z,12.74
2017-03-12T14:38:18.875Z,12.93
2017-03-12T14:39:28.854Z,12.55
2017-03-12T14:40:39.202Z,12.64
2017-03-12T14:41:49.565Z,12.64
2017-03-12T14:42:59.550Z,12.45
2017-03-12T14:44:09.841Z,12.54
2017-03-12T14:45:19.781Z,12.54
2017-03-12T14:46:30.112Z,12.45
2017-03-12T14:47:40.090Z,12.26
2017-03-12T14:48:49.918Z,12.64
2017-03-12T14:49:59.488Z,12.93
2017-03-12T14:51:10.233Z,13.22
2017-03-12T14:52:20.212Z,12.84
2017-03-12T14:53:29.785Z,12.74
2017-03-12T14:54:39.738Z,12.84
2017-03-12T14:55:50.096Z,12.84
2017-03-12T14:56:59.687Z,12.93
2017-03-12T14:58:09.085Z,12.84
2017-03-12T14:59:18.272Z,12.93
2017-03-12T15:00:28.631Z,13.12
2017-03-12T15:01:38.212Z,12.64
2017-03-12T15:02:47.379Z,12.84
2017-03-12T15:03:58.086Z,12.93
2017-03-12T15:05:07.302Z,12.64
2017-03-12T15:06:17.654Z,12.54
2017-03-12T15:07:27.991Z,12.93
2017-03-12T15:08:38.733Z,12.93
2017-03-12T15:09:47.542Z,12.84
2017-03-12T15:10:57.518Z,12.64
2017-03-12T15:12:07.501Z,12.74
2017-03-12T15:13:16.706Z,13.32
2017-03-12T15:14:27.072Z,13.12
2017-03-12T15:15:37.668Z,13.22
2017-03-12T15:16:48.050Z,13.31
2017-03-12T15:17:58.406Z,13.02
2017-03-12T15:19:07.620Z,12.92
2017-03-12T15:20:16.797Z,12.63
2017-03-12T15:21:26.810Z,13.12
2017-03-12T15:22:36.385Z,13.02
2017-03-12T15:23:45.947Z,12.92
2017-03-12T15:24:56.946Z,12.92